Sioux City, Iowa
Current Conditions -  °F | °C
As of 11:19 PM on Tuesday 25 Nov 2014 (Local Time) from KSUX Reporting Station
Light Snow Light Snow  
Wind Chill: 27°   Ceiling: 1700
Heat Index: 35°   Visibility: 6mi
Dew Point: 32°   Wind: 10mph
Humidity: 89%   Direction: 150°SSE
Pressure: 29.84"   Gusts: NA
Location:  42.5°N, 96.42°W
Report Text: KSUX 260519Z 15009KT 6SM -SN BR FEW009 BKN017 OVC024 02/00 A2984 RMK AO2 RAE13SNB13 P0001 T00170000
Loading
Personal Weather Stations






























Interactive Weather Map New forecast layout! Learn more

10-Day Weather Forecast

Advertisements
Track Severe Weather on mobile